createdAt,value
2022-09-27T00:01:37.622Z,87.25
2022-09-27T00:06:40.865Z,87.28
2022-09-27T00:11:39.584Z,87.28
2022-09-27T00:16:39.643Z,87.25
2022-09-27T00:21:39.660Z,87.27
2022-09-27T00:26:39.598Z,87.24
2022-09-27T00:31:39.719Z,87.29
2022-09-27T00:36:39.764Z,87.37
2022-09-27T00:41:39.854Z,87.39
2022-09-27T00:46:39.843Z,87.38
2022-09-27T00:51:40.068Z,87.40
2022-09-27T00:56:39.714Z,87.44
2022-09-27T01:01:39.970Z,87.46
2022-09-27T01:06:39.692Z,87.48
2022-09-27T01:11:39.581Z,87.47
2022-09-27T01:16:39.671Z,87.47
2022-09-27T01:21:40.599Z,87.51
2022-09-27T01:26:40.610Z,87.58
2022-09-27T01:31:41.316Z,87.63
2022-09-27T01:36:41.734Z,87.62
2022-09-27T01:41:46.571Z,87.62
2022-09-27T01:46:48.634Z,87.60
2022-09-27T01:51:48.795Z,87.59
2022-09-27T01:56:53.548Z,87.61
2022-09-27T02:01:54.235Z,87.58
2022-09-27T02:06:59.653Z,87.56
2022-09-27T02:12:01.715Z,87.59
2022-09-27T02:17:01.732Z,87.58
2022-09-27T02:22:01.730Z,87.58
2022-09-27T02:27:02.773Z,87.61
2022-09-27T02:32:03.015Z,87.63
2022-09-27T02:37:02.946Z,87.68
2022-09-27T02:42:03.090Z,87.73
2022-09-27T02:47:03.807Z,87.70
2022-09-27T02:52:03.760Z,87.69
2022-09-27T02:57:22.555Z,87.65
2022-09-27T03:02:30.680Z,87.67
2022-09-27T03:07:30.732Z,87.61
2022-09-27T03:12:30.789Z,87.62
2022-09-27T03:17:35.526Z,87.50
2022-09-27T03:22:35.803Z,87.49
2022-09-27T03:27:35.799Z,87.54
2022-09-27T03:32:54.476Z,87.58
2022-09-27T03:37:54.791Z,87.56
2022-09-27T03:42:54.936Z,87.56
2022-09-27T03:47:54.787Z,87.58
2022-09-27T03:52:55.172Z,87.62
2022-09-27T03:57:54.733Z,87.68
2022-09-27T04:02:56.649Z,87.65
2022-09-27T04:07:56.842Z,87.63
2022-09-27T04:12:58.777Z,87.65
2022-09-27T04:18:09.637Z,87.62
2022-09-27T04:23:11.544Z,87.67
2022-09-27T04:28:12.546Z,87.65
2022-09-27T04:33:31.203Z,87.64
2022-09-27T04:38:30.855Z,87.60
2022-09-27T04:43:30.987Z,87.61
2022-09-27T04:48:31.125Z,87.59
2022-09-27T04:53:31.482Z,87.54
2022-09-27T04:58:33.318Z,87.61
2022-09-27T05:03:34.663Z,87.67
2022-09-27T05:08:45.818Z,87.66
2022-09-27T05:13:45.840Z,87.58
2022-09-27T05:19:02.993Z,87.69
2022-09-27T05:24:02.810Z,87.72
2022-09-27T05:29:02.785Z,87.73
2022-09-27T05:34:04.659Z,87.75
2022-09-27T05:39:05.971Z,87.69
2022-09-27T05:44:06.401Z,87.56
2022-09-27T05:49:06.777Z,87.46
2022-09-27T05:54:07.043Z,87.33
2022-09-27T05:59:08.691Z,87.19
2022-09-27T06:04:28.801Z,87.13
2022-09-27T06:09:29.861Z,87.04
2022-09-27T06:14:31.692Z,86.75
2022-09-27T06:19:31.980Z,86.45
2022-09-27T06:24:33.758Z,86.18
2022-09-27T06:29:36.688Z,85.91
2022-09-27T06:34:37.811Z,85.69
2022-09-27T06:39:48.900Z,85.98
2022-09-27T06:45:08.152Z,86.09
2022-09-27T06:50:08.554Z,86.03
2022-09-27T06:55:09.447Z,85.87
2022-09-27T07:00:44.638Z,85.79
2022-09-27T07:05:46.789Z,85.49
2022-09-27T07:10:47.098Z,85.20
2022-09-27T07:15:48.812Z,85.28
2022-09-27T07:20:49.723Z,85.29
2022-09-27T07:25:51.646Z,85.36
2022-09-27T07:30:52.099Z,85.25
2022-09-27T07:35:52.028Z,85.12
2022-09-27T07:40:52.012Z,85.17
2022-09-27T07:46:09.142Z,85.19
2022-09-27T07:51:24.166Z,84.94
2022-09-27T07:56:24.123Z,84.84
2022-09-27T08:01:24.248Z,84.87
2022-09-27T08:06:25.859Z,84.60
2022-09-27T08:11:27.552Z,84.11
2022-09-27T08:16:48.259Z,83.76
2022-09-27T08:21:58.063Z,83.12
2022-09-27T08:26:56.866Z,82.23
2022-09-27T08:31:57.083Z,82.01
2022-09-27T08:36:58.305Z,82.18
2022-09-27T08:41:58.459Z,82.69
2022-09-27T08:46:59.000Z,82.87
2022-09-27T08:51:59.003Z,82.79
2022-09-27T08:57:00.241Z,82.59
2022-09-27T09:02:01.944Z,82.63
2022-09-27T09:07:03.475Z,82.70
2022-09-27T09:12:22.065Z,82.53
2022-09-27T09:17:23.807Z,82.21
2022-09-27T09:22:26.455Z,82.14
2022-09-27T09:27:26.270Z,81.58
2022-09-27T09:32:25.929Z,80.36
2022-09-27T09:37:28.245Z,79.64
2022-09-27T09:42:29.330Z,79.49
2022-09-27T09:47:29.762Z,79.89
2022-09-27T09:52:30.212Z,80.40
2022-09-27T09:57:30.441Z,79.94
2022-09-27T10:02:31.993Z,79.74
2022-09-27T10:07:32.582Z,79.66
2022-09-27T10:12:33.758Z,79.71
2022-09-27T10:17:35.012Z,79.40
2022-09-27T10:22:38.103Z,78.22
2022-09-27T10:27:40.010Z,78.36
2022-09-27T10:32:44.854Z,78.05
2022-09-27T10:37:47.039Z,78.57
2022-09-27T10:42:47.294Z,77.90
2022-09-27T10:47:54.841Z,77.35
2022-09-27T10:52:55.065Z,77.42
2022-09-27T10:57:55.333Z,76.57
2022-09-27T11:02:55.585Z,76.33
2022-09-27T11:07:56.951Z,77.24
2022-09-27T11:12:58.905Z,77.28
2022-09-27T11:17:59.889Z,77.00
2022-09-27T11:23:01.569Z,76.25
2022-09-27T11:28:02.943Z,76.08
2022-09-27T11:33:03.414Z,75.78
2022-09-27T11:38:03.072Z,74.82
2022-09-27T11:43:03.691Z,74.18
2022-09-27T11:48:04.683Z,74.16
2022-09-27T11:53:05.214Z,73.62
2022-09-27T11:58:05.830Z,74.29
2022-09-27T12:03:06.610Z,74.27
2022-09-27T12:08:07.356Z,74.25
2022-09-27T12:13:07.480Z,73.66
2022-09-27T12:18:07.390Z,73.97
2022-09-27T12:23:12.011Z,74.42
2022-09-27T12:28:12.250Z,75.57
2022-09-27T12:33:12.335Z,75.94
2022-09-27T12:38:12.102Z,75.37
2022-09-27T12:43:29.387Z,74.97
2022-09-27T12:48:29.165Z,74.11
2022-09-27T12:53:29.896Z,74.51
2022-09-27T12:58:30.248Z,74.00
2022-09-27T13:03:32.057Z,74.12
2022-09-27T13:08:32.980Z,73.71
2022-09-27T13:13:36.542Z,72.81
2022-09-27T13:18:35.830Z,73.43
2022-09-27T13:23:36.457Z,73.88
2022-09-27T13:28:39.624Z,73.66
2022-09-27T13:33:39.190Z,72.64
2022-09-27T13:38:39.772Z,71.74
2022-09-27T13:43:43.363Z,71.85
2022-09-27T13:48:47.518Z,72.48
2022-09-27T13:53:47.318Z,72.29
2022-09-27T13:58:49.112Z,71.66
2022-09-27T14:03:49.582Z,71.33
2022-09-27T14:08:49.777Z,71.16
2022-09-27T14:13:50.420Z,71.18
2022-09-27T14:18:54.387Z,70.93
2022-09-27T14:23:54.153Z,70.91
2022-09-27T14:29:05.179Z,70.66
2022-09-27T14:34:05.317Z,69.74
2022-09-27T14:39:07.133Z,69.50
2022-09-27T14:44:07.257Z,69.61
2022-09-27T14:49:07.300Z,70.10
2022-09-27T14:54:09.088Z,70.14
2022-09-27T14:59:09.431Z,69.45
2022-09-27T15:04:10.519Z,68.72
2022-09-27T15:09:12.105Z,68.15
2022-09-27T15:14:12.289Z,68.19
2022-09-27T15:19:12.240Z,68.47
2022-09-27T15:24:12.532Z,68.17
2022-09-27T15:29:12.343Z,68.62
2022-09-27T15:34:12.408Z,68.80
2022-09-27T15:39:12.289Z,68.90
2022-09-27T15:44:12.198Z,69.43
2022-09-27T15:49:12.302Z,69.66
2022-09-27T15:54:12.413Z,70.23
2022-09-27T15:59:12.387Z,70.78
2022-09-27T16:04:12.349Z,71.13
2022-09-27T16:09:12.290Z,71.70
2022-09-27T16:14:14.631Z,72.46
2022-09-27T16:19:14.413Z,73.05
2022-09-27T16:24:14.237Z,73.65
2022-09-27T16:29:14.611Z,74.27
2022-09-27T16:34:14.306Z,74.62
2022-09-27T16:39:14.376Z,75.04
2022-09-27T16:44:16.204Z,75.52
2022-09-27T16:49:34.754Z,75.75
2022-09-27T16:54:34.313Z,76.25
2022-09-27T16:59:34.387Z,76.48
2022-09-27T17:04:34.247Z,76.83
2022-09-27T17:09:34.320Z,77.12
2022-09-27T17:14:34.313Z,77.38
2022-09-27T17:19:34.331Z,77.81
2022-09-27T17:24:34.263Z,77.96
2022-09-27T17:29:34.381Z,78.11
2022-09-27T17:34:34.337Z,78.25
2022-09-27T17:39:34.388Z,78.40
2022-09-27T17:44:34.323Z,78.52
2022-09-27T17:49:52.643Z,78.67
2022-09-27T17:54:54.851Z,78.87
2022-09-27T17:59:54.311Z,78.96
2022-09-27T18:04:54.347Z,79.15
2022-09-27T18:09:54.358Z,79.29
2022-09-27T18:14:56.188Z,79.36
2022-09-27T18:19:57.351Z,79.50
2022-09-27T18:24:57.386Z,79.54
2022-09-27T18:29:59.372Z,79.64
2022-09-27T18:34:59.360Z,79.65
2022-09-27T18:39:59.385Z,79.81
2022-09-27T18:44:59.294Z,79.80
2022-09-27T18:49:59.534Z,79.90
2022-09-27T18:54:59.484Z,80.13
2022-09-27T19:00:03.506Z,80.16
2022-09-27T19:05:03.445Z,80.26
2022-09-27T19:10:04.596Z,80.31
2022-09-27T19:15:04.711Z,80.48
2022-09-27T19:20:06.275Z,80.54
2022-09-27T19:25:06.434Z,80.78
2022-09-27T19:30:06.514Z,81.03
2022-09-27T19:35:06.448Z,81.16
2022-09-27T19:40:06.357Z,81.21
2022-09-27T19:45:10.772Z,81.16
2022-09-27T19:50:08.338Z,81.21
2022-09-27T19:55:08.433Z,81.33
2022-09-27T20:00:08.367Z,81.46
2022-09-27T20:05:08.379Z,81.87
2022-09-27T20:10:08.493Z,82.30
2022-09-27T20:15:08.350Z,82.72
2022-09-27T20:20:08.614Z,83.08
2022-09-27T20:25:08.632Z,83.27
2022-09-27T20:30:08.518Z,83.31
2022-09-27T20:35:10.294Z,83.52
2022-09-27T20:40:10.770Z,83.58
2022-09-27T20:45:10.571Z,83.63
2022-09-27T20:50:10.439Z,83.84
2022-09-27T20:55:11.378Z,83.97
2022-09-27T21:00:11.478Z,84.15
2022-09-27T21:05:11.727Z,84.29
2022-09-27T21:10:11.367Z,84.43
2022-09-27T21:15:11.443Z,84.55
2022-09-27T21:20:11.407Z,84.57
2022-09-27T21:25:11.421Z,84.70
2022-09-27T21:30:11.471Z,84.81
2022-09-27T21:35:11.383Z,84.82
2022-09-27T21:40:11.715Z,84.86
2022-09-27T21:45:11.698Z,85.02
2022-09-27T21:50:11.484Z,85.05
2022-09-27T21:55:11.414Z,85.12
2022-09-27T22:00:11.540Z,85.22
2022-09-27T22:05:11.475Z,85.33
2022-09-27T22:10:11.926Z,85.44
2022-09-27T22:15:11.925Z,85.44
2022-09-27T22:20:11.494Z,85.60
2022-09-27T22:25:11.460Z,85.60
2022-09-27T22:30:11.455Z,85.57
2022-09-27T22:35:11.504Z,85.65
2022-09-27T22:40:11.537Z,85.65
2022-09-27T22:45:11.478Z,85.75
2022-09-27T22:50:11.519Z,85.78
2022-09-27T22:55:11.543Z,85.85
2022-09-27T23:00:11.514Z,85.88
2022-09-27T23:05:11.513Z,85.96
2022-09-27T23:10:12.434Z,85.97
2022-09-27T23:15:13.464Z,85.96
2022-09-27T23:20:13.778Z,85.97
2022-09-27T23:25:13.494Z,86.01
2022-09-27T23:30:13.687Z,85.98
2022-09-27T23:35:13.578Z,86.03
2022-09-27T23:40:13.496Z,86.02
2022-09-27T23:45:15.369Z,85.98
2022-09-27T23:50:15.528Z,86.01
2022-09-27T23:55:15.542Z,86.03
